sensor_id;sensor_type;location;lat;lon;timestamp;temperature;humidity
50013;DHT22;35901;48.694;9.476;2023-04-01T00:00:20;8.20;99.90
50013;DHT22;35901;48.694;9.476;2023-04-01T00:02:47;8.20;99.90
50013;DHT22;35901;48.694;9.476;2023-04-01T00:05:13;8.10;99.90
50013;DHT22;35901;48.694;9.476;2023-04-01T00:07:40;8.10;99.90
50013;DHT22;35901;48.694;9.476;2023-04-01T00:10:08;8.10;99.90
50013;DHT22;35901;48.694;9.476;2023-04-01T00:12:34;8.10;99.90
50013;DHT22;35901;48.694;9.476;2023-04-01T00:15:00;8.00;99.90
50013;DHT22;35901;48.694;9.476;2023-04-01T00:17:26;8.10;99.90
50013;DHT22;35901;48.694;9.476;2023-04-01T00:19:51;8.10;99.90
50013;DHT22;35901;48.694;9.476;2023-04-01T00:22:17;8.20;99.90
50013;DHT22;35901;48.694;9.476;2023-04-01T00:24:43;8.20;99.90
50013;DHT22;35901;48.694;9.476;2023-04-01T00:27:10;8.30;99.90
50013;DHT22;35901;48.694;9.476;2023-04-01T00:29:36;8.40;99.90
50013;DHT22;35901;48.694;9.476;2023-04-01T00:32:02;8.40;99.90
50013;DHT22;35901;48.694;9.476;2023-04-01T00:34:28;8.40;99.90
50013;DHT22;35901;48.694;9.476;2023-04-01T00:36:54;8.40;99.90
50013;DHT22;35901;48.694;9.476;2023-04-01T00:39:21;8.40;99.90
50013;DHT22;35901;48.694;9.476;2023-04-01T00:41:47;8.30;99.90
50013;DHT22;35901;48.694;9.476;2023-04-01T00:44:24;8.30;99.90
50013;DHT22;35901;48.694;9.476;2023-04-01T00:46:50;8.20;99.90
50013;DHT22;35901;48.694;9.476;2023-04-01T00:49:20;8.20;99.90
50013;DHT22;35901;48.694;9.476;2023-04-01T00:51:48;8.20;99.90
50013;DHT22;35901;48.694;9.476;2023-04-01T00:54:16;8.30;99.90
50013;DHT22;35901;48.694;9.476;2023-04-01T00:56:58;8.30;99.90
50013;DHT22;35901;48.694;9.476;2023-04-01T00:59:29;8.40;99.90
50013;DHT22;35901;48.694;9.476;2023-04-01T01:01:56;8.50;99.90
50013;DHT22;35901;48.694;9.476;2023-04-01T01:04:25;8.50;99.90
50013;DHT22;35901;48.694;9.476;2023-04-01T01:10:20;8.50;99.90
50013;DHT22;35901;48.694;9.476;2023-04-01T01:15:37;8.50;99.90
50013;DHT22;35901;48.694;9.476;2023-04-01T01:37:39;8.10;99.90
50013;DHT22;35901;48.694;9.476;2023-04-01T01:40:09;8.20;99.90
50013;DHT22;35901;48.694;9.476;2023-04-01T01:42:39;8.20;99.90
50013;DHT22;35901;48.694;9.476;2023-04-01T01:45:08;8.10;99.90
50013;DHT22;35901;48.694;9.476;2023-04-01T01:47:35;8.00;99.90
50013;DHT22;35901;48.694;9.476;2023-04-01T01:50:04;8.00;99.90
50013;DHT22;35901;48.694;9.476;2023-04-01T01:52:30;8.00;99.90
50013;DHT22;35901;48.694;9.476;2023-04-01T01:54:57;7.90;99.90
50013;DHT22;35901;48.694;9.476;2023-04-01T01:57:38;7.90;99.90
50013;DHT22;35901;48.694;9.476;2023-04-01T02:00:10;7.90;99.90
50013;DHT22;35901;48.694;9.476;2023-04-01T02:02:41;8.00;99.90
50013;DHT22;35901;48.694;9.476;2023-04-01T02:05:10;7.90;99.90
50013;DHT22;35901;48.694;9.476;2023-04-01T02:07:37;7.80;99.90
50013;DHT22;35901;48.694;9.476;2023-04-01T02:10:06;7.80;99.90
50013;DHT22;35901;48.694;9.476;2023-04-01T02:12:33;7.70;99.90
50013;DHT22;35901;48.694;9.476;2023-04-01T02:15:05;7.60;99.90
50013;DHT22;35901;48.694;9.476;2023-04-01T02:17:34;7.60;99.90
50013;DHT22;35901;48.694;9.476;2023-04-01T02:20:22;7.60;99.90
50013;DHT22;35901;48.694;9.476;2023-04-01T02:22:51;7.60;99.90
50013;DHT22;35901;48.694;9.476;2023-04-01T02:25:21;7.60;99.90
50013;DHT22;35901;48.694;9.476;2023-04-01T02:27:48;7.70;99.90
50013;DHT22;35901;48.694;9.476;2023-04-01T02:30:15;7.70;99.90
50013;DHT22;35901;48.694;9.476;2023-04-01T02:32:42;7.70;99.90
50013;DHT22;35901;48.694;9.476;2023-04-01T02:35:10;7.70;99.90
50013;DHT22;35901;48.694;9.476;2023-04-01T02:37:37;7.60;99.90
50013;DHT22;35901;48.694;9.476;2023-04-01T02:40:05;7.60;99.90
50013;DHT22;35901;48.694;9.476;2023-04-01T02:42:33;7.60;99.90
50013;DHT22;35901;48.694;9.476;2023-04-01T02:44:59;7.60;99.90
50013;DHT22;35901;48.694;9.476;2023-04-01T02:47:25;7.60;99.90
50013;DHT22;35901;48.694;9.476;2023-04-01T02:49:51;7.70;99.90
50013;DHT22;35901;48.694;9.476;2023-04-01T02:52:29;7.60;99.90
50013;DHT22;35901;48.694;9.476;2023-04-01T02:54:57;7.60;99.90
50013;DHT22;35901;48.694;9.476;2023-04-01T02:57:24;7.60;99.90
50013;DHT22;35901;48.694;9.476;2023-04-01T02:59:50;7.60;99.90
50013;DHT22;35901;48.694;9.476;2023-04-01T03:02:16;7.60;99.90
50013;DHT22;35901;48.694;9.476;2023-04-01T03:04:42;7.50;99.90
50013;DHT22;35901;48.694;9.476;2023-04-01T03:07:08;7.40;99.90
50013;DHT22;35901;48.694;9.476;2023-04-01T03:09:36;7.40;99.90
50013;DHT22;35901;48.694;9.476;2023-04-01T03:12:02;7.30;99.90
50013;DHT22;35901;48.694;9.476;2023-04-01T03:14:28;7.20;99.90
50013;DHT22;35901;48.694;9.476;2023-04-01T03:16:54;7.20;99.90
50013;DHT22;35901;48.694;9.476;2023-04-01T03:19:20;7.10;99.90
50013;DHT22;35901;48.694;9.476;2023-04-01T03:21:46;7.10;99.90
50013;DHT22;35901;48.694;9.476;2023-04-01T03:24:11;7.00;99.90
50013;DHT22;35901;48.694;9.476;2023-04-01T03:26:37;7.00;99.90
50013;DHT22;35901;48.694;9.476;2023-04-01T03:29:03;7.00;99.90
50013;DHT22;35901;48.694;9.476;2023-04-01T03:31:28;7.00;99.90
50013;DHT22;35901;48.694;9.476;2023-04-01T03:33:56;7.00;99.90
50013;DHT22;35901;48.694;9.476;2023-04-01T03:36:21;7.10;99.90
50013;DHT22;35901;48.694;9.476;2023-04-01T03:38:47;7.00;99.90
50013;DHT22;35901;48.694;9.476;2023-04-01T03:41:18;7.00;99.90
50013;DHT22;35901;48.694;9.476;2023-04-01T03:43:44;7.00;99.90
50013;DHT22;35901;48.694;9.476;2023-04-01T03:46:10;6.90;99.90
50013;DHT22;35901;48.694;9.476;2023-04-01T03:48:36;6.90;99.90
50013;DHT22;35901;48.694;9.476;2023-04-01T03:51:07;7.00;99.90
50013;DHT22;35901;48.694;9.476;2023-04-01T03:53:33;7.00;99.90
50013;DHT22;35901;48.694;9.476;2023-04-01T03:56:05;7.10;99.90
50013;DHT22;35901;48.694;9.476;2023-04-01T03:58:32;7.10;99.90
50013;DHT22;35901;48.694;9.476;2023-04-01T04:01:00;7.10;99.90
50013;DHT22;35901;48.694;9.476;2023-04-01T04:03:25;7.10;99.90
50013;DHT22;35901;48.694;9.476;2023-04-01T04:05:51;7.10;99.90
50013;DHT22;35901;48.694;9.476;2023-04-01T04:08:18;7.10;99.90
50013;DHT22;35901;48.694;9.476;2023-04-01T04:10:44;7.00;99.90
50013;DHT22;35901;48.694;9.476;2023-04-01T04:13:10;7.00;99.90
50013;DHT22;35901;48.694;9.476;2023-04-01T04:15:42;6.90;99.90
50013;DHT22;35901;48.694;9.476;2023-04-01T04:18:07;6.80;99.90
50013;DHT22;35901;48.694;9.476;2023-04-01T04:20:33;6.70;99.90
50013;DHT22;35901;48.694;9.476;2023-04-01T04:23:00;6.60;99.90
50013;DHT22;35901;48.694;9.476;2023-04-01T04:25:26;6.60;99.90
50013;DHT22;35901;48.694;9.476;2023-04-01T04:27:51;6.50;99.90
50013;DHT22;35901;48.694;9.476;2023-04-01T04:30:17;6.50;99.90
50013;DHT22;35901;48.694;9.476;2023-04-01T04:32:43;6.40;99.90
50013;DHT22;35901;48.694;9.476;2023-04-01T04:35:11;6.30;99.90
50013;DHT22;35901;48.694;9.476;2023-04-01T04:37:37;6.30;99.90
50013;DHT22;35901;48.694;9.476;2023-04-01T04:40:02;6.40;99.90
50013;DHT22;35901;48.694;9.476;2023-04-01T04:42:29;6.40;99.90
50013;DHT22;35901;48.694;9.476;2023-04-01T04:45:00;6.40;99.90
50013;DHT22;35901;48.694;9.476;2023-04-01T04:47:26;6.40;99.90
50013;DHT22;35901;48.694;9.476;2023-04-01T04:49:52;6.40;99.90
50013;DHT22;35901;48.694;9.476;2023-04-01T04:52:18;6.30;99.90
50013;DHT22;35901;48.694;9.476;2023-04-01T04:54:43;6.30;99.90
50013;DHT22;35901;48.694;9.476;2023-04-01T04:57:09;6.30;99.90
50013;DHT22;35901;48.694;9.476;2023-04-01T04:59:43;6.30;99.90
50013;DHT22;35901;48.694;9.476;2023-04-01T05:02:15;6.30;99.90
50013;DHT22;35901;48.694;9.476;2023-04-01T05:04:41;6.40;99.90
50013;DHT22;35901;48.694;9.476;2023-04-01T05:07:09;6.40;99.90
50013;DHT22;35901;48.694;9.476;2023-04-01T05:09:35;6.50;99.90
50013;DHT22;35901;48.694;9.476;2023-04-01T05:12:02;6.60;99.90
50013;DHT22;35901;48.694;9.476;2023-04-01T05:14:37;6.70;99.90
50013;DHT22;35901;48.694;9.476;2023-04-01T05:17:10;6.70;99.90
50013;DHT22;35901;48.694;9.476;2023-04-01T05:19:36;6.80;99.90
50013;DHT22;35901;48.694;9.476;2023-04-01T05:22:02;6.90;99.90
50013;DHT22;35901;48.694;9.476;2023-04-01T05:24:29;7.00;99.90
50013;DHT22;35901;48.694;9.476;2023-04-01T05:26:55;7.10;99.90
50013;DHT22;35901;48.694;9.476;2023-04-01T05:29:24;7.20;99.90
50013;DHT22;35901;48.694;9.476;2023-04-01T05:31:56;7.20;99.90
50013;DHT22;35901;48.694;9.476;2023-04-01T05:34:21;7.30;99.90
50013;DHT22;35901;48.694;9.476;2023-04-01T05:36:48;7.40;99.90
50013;DHT22;35901;48.694;9.476;2023-04-01T05:39:13;7.50;99.90
50013;DHT22;35901;48.694;9.476;2023-04-01T05:41:39;7.50;99.90
50013;DHT22;35901;48.694;9.476;2023-04-01T05:44:06;7.60;99.90
50013;DHT22;35901;48.694;9.476;2023-04-01T05:46:37;7.60;99.90
50013;DHT22;35901;48.694;9.476;2023-04-01T05:49:21;7.70;99.90
50013;DHT22;35901;48.694;9.476;2023-04-01T05:51:48;7.80;99.90
50013;DHT22;35901;48.694;9.476;2023-04-01T05:54:14;7.80;99.90
50013;DHT22;35901;48.694;9.476;2023-04-01T05:56:42;7.90;99.90
50013;DHT22;35901;48.694;9.476;2023-04-01T05:59:09;7.90;99.90
50013;DHT22;35901;48.694;9.476;2023-04-01T06:01:35;7.90;99.90
50013;DHT22;35901;48.694;9.476;2023-04-01T06:04:01;7.90;99.90
50013;DHT22;35901;48.694;9.476;2023-04-01T06:06:28;7.90;99.90
50013;DHT22;35901;48.694;9.476;2023-04-01T06:09:17;8.00;99.90
50013;DHT22;35901;48.694;9.476;2023-04-01T06:12:35;8.10;99.90
50013;DHT22;35901;48.694;9.476;2023-04-01T06:15:26;8.20;99.90
50013;DHT22;35901;48.694;9.476;2023-04-01T06:50:44;9.40;99.90
50013;DHT22;35901;48.694;9.476;2023-04-01T06:53:58;9.40;99.90
50013;DHT22;35901;48.694;9.476;2023-04-01T06:56:51;9.40;99.90
50013;DHT22;35901;48.694;9.476;2023-04-01T06:59:40;9.40;99.90
50013;DHT22;35901;48.694;9.476;2023-04-01T07:02:34;9.40;99.90
50013;DHT22;35901;48.694;9.476;2023-04-01T07:05:04;9.40;99.90
50013;DHT22;35901;48.694;9.476;2023-04-01T07:10:15;9.40;99.90
50013;DHT22;35901;48.694;9.476;2023-04-01T07:13:04;9.30;99.90
50013;DHT22;35901;48.694;9.476;2023-04-01T07:15:49;9.30;99.90
50013;DHT22;35901;48.694;9.476;2023-04-01T07:18:28;9.30;99.90
50013;DHT22;35901;48.694;9.476;2023-04-01T07:20:56;9.20;99.90
50013;DHT22;35901;48.694;9.476;2023-04-01T07:23:26;9.20;99.90
50013;DHT22;35901;48.694;9.476;2023-04-01T07:26:22;9.20;99.90
50013;DHT22;35901;48.694;9.476;2023-04-01T07:29:09;9.30;99.90
50013;DHT22;35901;48.694;9.476;2023-04-01T07:48:57;9.40;99.90
50013;DHT22;35901;48.694;9.476;2023-04-01T07:51:35;9.40;99.90
50013;DHT22;35901;48.694;9.476;2023-04-01T07:54:26;9.40;99.90
50013;DHT22;35901;48.694;9.476;2023-04-01T07:57:06;9.50;99.90
50013;DHT22;35901;48.694;9.476;2023-04-01T08:00:20;9.40;99.90
50013;DHT22;35901;48.694;9.476;2023-04-01T08:06:07;9.60;99.90
50013;DHT22;35901;48.694;9.476;2023-04-01T08:09:10;9.60;99.90
50013;DHT22;35901;48.694;9.476;2023-04-01T08:12:35;9.60;99.90
50013;DHT22;35901;48.694;9.476;2023-04-01T08:15:49;9.70;99.90
50013;DHT22;35901;48.694;9.476;2023-04-01T08:18:43;9.80;99.90
50013;DHT22;35901;48.694;9.476;2023-04-01T08:21:17;9.70;99.90
50013;DHT22;35901;48.694;9.476;2023-04-01T08:23:47;9.70;99.90
50013;DHT22;35901;48.694;9.476;2023-04-01T08:33:55;9.60;99.90
50013;DHT22;35901;48.694;9.476;2023-04-01T08:36:31;9.60;99.90
50013;DHT22;35901;48.694;9.476;2023-04-01T08:39:20;9.60;99.90
50013;DHT22;35901;48.694;9.476;2023-04-01T08:47:46;9.50;99.90
50013;DHT22;35901;48.694;9.476;2023-04-01T08:53:21;9.60;99.90
50013;DHT22;35901;48.694;9.476;2023-04-01T08:59:13;9.70;99.90
50013;DHT22;35901;48.694;9.476;2023-04-01T09:12:46;9.30;99.90
50013;DHT22;35901;48.694;9.476;2023-04-01T09:21:22;8.60;99.90
50013;DHT22;35901;48.694;9.476;2023-04-01T09:38:22;8.40;99.90
50013;DHT22;35901;48.694;9.476;2023-04-01T09:41:01;8.60;99.90
50013;DHT22;35901;48.694;9.476;2023-04-01T09:43:56;8.70;99.90
50013;DHT22;35901;48.694;9.476;2023-04-01T10:03:27;9.30;99.90
50013;DHT22;35901;48.694;9.476;2023-04-01T10:37:15;8.60;99.90
50013;DHT22;35901;48.694;9.476;2023-04-01T11:04:35;9.10;99.90
50013;DHT22;35901;48.694;9.476;2023-04-01T11:13:53;9.40;99.90
50013;DHT22;35901;48.694;9.476;2023-04-01T11:33:35;9.50;99.90
50013;DHT22;35901;48.694;9.476;2023-04-01T11:36:11;9.60;99.90
50013;DHT22;35901;48.694;9.476;2023-04-01T11:41:45;9.50;99.90
50013;DHT22;35901;48.694;9.476;2023-04-01T11:44:35;9.60;99.90
50013;DHT22;35901;48.694;9.476;2023-04-01T11:50:20;9.80;99.90
50013;DHT22;35901;48.694;9.476;2023-04-01T12:03:46;10.00;99.90
50013;DHT22;35901;48.694;9.476;2023-04-01T12:06:23;10.00;99.90
50013;DHT22;35901;48.694;9.476;2023-04-01T12:17:30;10.20;99.90
50013;DHT22;35901;48.694;9.476;2023-04-01T12:26:04;10.20;99.90
50013;DHT22;35901;48.694;9.476;2023-04-01T12:28:45;10.10;99.90
50013;DHT22;35901;48.694;9.476;2023-04-01T12:34:22;10.00;99.90
50013;DHT22;35901;48.694;9.476;2023-04-01T12:40:06;9.90;99.90
50013;DHT22;35901;48.694;9.476;2023-04-01T13:16:26;10.20;99.90
50013;DHT22;35901;48.694;9.476;2023-04-01T13:22:20;10.50;99.90
50013;DHT22;35901;48.694;9.476;2023-04-01T13:25:05;10.50;99.90
50013;DHT22;35901;48.694;9.476;2023-04-01T13:27:43;10.50;99.90
50013;DHT22;35901;48.694;9.476;2023-04-01T13:30:30;10.40;99.90
50013;DHT22;35901;48.694;9.476;2023-04-01T13:49:50;10.30;99.90
50013;DHT22;35901;48.694;9.476;2023-04-01T14:06:58;10.70;99.90
50013;DHT22;35901;48.694;9.476;2023-04-01T14:09:51;10.80;99.90
50013;DHT22;35901;48.694;9.476;2023-04-01T14:15:19;10.90;99.90
50013;DHT22;35901;48.694;9.476;2023-04-01T14:18:18;10.90;99.90
50013;DHT22;35901;48.694;9.476;2023-04-01T14:23:36;11.00;99.90
50013;DHT22;35901;48.694;9.476;2023-04-01T14:28:58;11.10;99.90
50013;DHT22;35901;48.694;9.476;2023-04-01T14:37:14;11.10;99.90
50013;DHT22;35901;48.694;9.476;2023-04-01T14:39:55;11.10;99.90
50013;DHT22;35901;48.694;9.476;2023-04-01T14:48:28;11.10;99.90
50013;DHT22;35901;48.694;9.476;2023-04-01T14:51:02;11.00;99.90
50013;DHT22;35901;48.694;9.476;2023-04-01T14:53:33;10.90;99.90
50013;DHT22;35901;48.694;9.476;2023-04-01T14:56:02;10.70;99.90
50013;DHT22;35901;48.694;9.476;2023-04-01T14:58:46;10.60;99.90
50013;DHT22;35901;48.694;9.476;2023-04-01T15:01:45;10.60;99.90
50013;DHT22;35901;48.694;9.476;2023-04-01T15:04:43;10.50;99.90
50013;DHT22;35901;48.694;9.476;2023-04-01T15:07:42;10.40;99.90
50013;DHT22;35901;48.694;9.476;2023-04-01T15:13:30;10.30;99.90
50013;DHT22;35901;48.694;9.476;2023-04-01T15:19:53;10.40;99.90
50013;DHT22;35901;48.694;9.476;2023-04-01T15:22:25;10.40;99.90
50013;DHT22;35901;48.694;9.476;2023-04-01T15:31:24;10.30;99.90
50013;DHT22;35901;48.694;9.476;2023-04-01T15:33:49;10.30;99.90
50013;DHT22;35901;48.694;9.476;2023-04-01T15:47:30;10.00;99.90
50013;DHT22;35901;48.694;9.476;2023-04-01T15:49:59;10.00;99.90
50013;DHT22;35901;48.694;9.476;2023-04-01T15:55:27;10.00;99.90
50013;DHT22;35901;48.694;9.476;2023-04-01T16:01:14;9.90;99.90
50013;DHT22;35901;48.694;9.476;2023-04-01T16:09:26;9.80;99.90
50013;DHT22;35901;48.694;9.476;2023-04-01T16:14:45;9.80;99.90
50013;DHT22;35901;48.694;9.476;2023-04-01T16:20:34;9.80;99.90
50013;DHT22;35901;48.694;9.476;2023-04-01T16:34:27;9.80;99.90
50013;DHT22;35901;48.694;9.476;2023-04-01T16:37:15;9.80;99.90
50013;DHT22;35901;48.694;9.476;2023-04-01T16:39:49;9.70;99.90
50013;DHT22;35901;48.694;9.476;2023-04-01T16:47:56;9.60;99.90
50013;DHT22;35901;48.694;9.476;2023-04-01T16:50:51;9.60;99.90
50013;DHT22;35901;48.694;9.476;2023-04-01T16:53:30;9.60;99.90
50013;DHT22;35901;48.694;9.476;2023-04-01T16:58:36;9.60;99.90
50013;DHT22;35901;48.694;9.476;2023-04-01T17:01:21;9.60;99.90
50013;DHT22;35901;48.694;9.476;2023-04-01T17:03:57;9.60;99.90
50013;DHT22;35901;48.694;9.476;2023-04-01T17:06:25;9.50;99.90
50013;DHT22;35901;48.694;9.476;2023-04-01T17:14:28;9.50;99.90
50013;DHT22;35901;48.694;9.476;2023-04-01T17:23:04;9.60;99.90
50013;DHT22;35901;48.694;9.476;2023-04-01T17:30:58;9.60;99.90
50013;DHT22;35901;48.694;9.476;2023-04-01T17:33:31;9.60;99.90
50013;DHT22;35901;48.694;9.476;2023-04-01T17:41:57;9.50;99.90
50013;DHT22;35901;48.694;9.476;2023-04-01T17:44:59;9.50;99.90
50013;DHT22;35901;48.694;9.476;2023-04-01T17:47:52;9.50;99.90
50013;DHT22;35901;48.694;9.476;2023-04-01T17:53:39;9.50;99.90
50013;DHT22;35901;48.694;9.476;2023-04-01T17:59:02;9.40;99.90
50013;DHT22;35901;48.694;9.476;2023-04-01T18:02:24;9.40;99.90
50013;DHT22;35901;48.694;9.476;2023-04-01T18:10:28;9.30;99.90
50013;DHT22;35901;48.694;9.476;2023-04-01T18:15:59;9.30;99.90
50013;DHT22;35901;48.694;9.476;2023-04-01T18:24:00;9.30;99.90
50013;DHT22;35901;48.694;9.476;2023-04-01T18:26:34;9.30;99.90
50013;DHT22;35901;48.694;9.476;2023-04-01T18:31:48;9.30;99.90
50013;DHT22;35901;48.694;9.476;2023-04-01T18:37:00;9.20;99.90
50013;DHT22;35901;48.694;9.476;2023-04-01T18:39:42;9.20;99.90
50013;DHT22;35901;48.694;9.476;2023-04-01T18:42:38;9.20;99.90
50013;DHT22;35901;48.694;9.476;2023-04-01T18:48:30;9.00;99.90
50013;DHT22;35901;48.694;9.476;2023-04-01T18:51:21;9.00;99.90
50013;DHT22;35901;48.694;9.476;2023-04-01T18:53:52;9.00;99.90
50013;DHT22;35901;48.694;9.476;2023-04-01T19:01:47;8.40;99.90
50013;DHT22;35901;48.694;9.476;2023-04-01T19:07:03;8.20;99.90
50013;DHT22;35901;48.694;9.476;2023-04-01T19:09:45;8.20;99.90
50013;DHT22;35901;48.694;9.476;2023-04-01T19:12:33;8.20;99.90
50013;DHT22;35901;48.694;9.476;2023-04-01T19:15:40;8.20;99.90
50013;DHT22;35901;48.694;9.476;2023-04-01T19:38:23;7.80;99.90
50013;DHT22;35901;48.694;9.476;2023-04-01T19:49:09;7.70;99.90
50013;DHT22;35901;48.694;9.476;2023-04-01T19:57:33;7.80;99.90
50013;DHT22;35901;48.694;9.476;2023-04-01T20:08:25;7.80;99.90
50013;DHT22;35901;48.694;9.476;2023-04-01T20:11:22;7.70;99.90
50013;DHT22;35901;48.694;9.476;2023-04-01T20:19:40;7.50;99.90
50013;DHT22;35901;48.694;9.476;2023-04-01T20:22:28;7.50;99.90
50013;DHT22;35901;48.694;9.476;2023-04-01T20:24:59;7.40;99.90
50013;DHT22;35901;48.694;9.476;2023-04-01T20:27:32;7.40;99.90
50013;DHT22;35901;48.694;9.476;2023-04-01T20:30:34;7.40;99.90
50013;DHT22;35901;48.694;9.476;2023-04-01T20:33:20;7.40;99.90
50013;DHT22;35901;48.694;9.476;2023-04-01T20:38:51;7.40;99.90
50013;DHT22;35901;48.694;9.476;2023-04-01T20:46:56;7.40;99.90
50013;DHT22;35901;48.694;9.476;2023-04-01T20:50:15;7.40;99.90
50013;DHT22;35901;48.694;9.476;2023-04-01T20:52:55;7.40;99.90
50013;DHT22;35901;48.694;9.476;2023-04-01T20:56:14;7.40;99.90
50013;DHT22;35901;48.694;9.476;2023-04-01T21:06:40;7.20;99.90
50013;DHT22;35901;48.694;9.476;2023-04-01T21:09:18;7.30;99.90
50013;DHT22;35901;48.694;9.476;2023-04-01T21:11:49;7.30;99.90
50013;DHT22;35901;48.694;9.476;2023-04-01T21:14:39;7.30;99.90
50013;DHT22;35901;48.694;9.476;2023-04-01T21:22:36;7.30;99.90
50013;DHT22;35901;48.694;9.476;2023-04-01T21:25:17;7.30;99.90
50013;DHT22;35901;48.694;9.476;2023-04-01T21:35:52;7.30;99.90
50013;DHT22;35901;48.694;9.476;2023-04-01T21:41:31;7.30;99.90
50013;DHT22;35901;48.694;9.476;2023-04-01T22:00:53;7.00;99.90
50013;DHT22;35901;48.694;9.476;2023-04-01T22:06:22;7.00;99.90
50013;DHT22;35901;48.694;9.476;2023-04-01T22:08:59;7.10;99.90
50013;DHT22;35901;48.694;9.476;2023-04-01T22:14:40;7.10;99.90
50013;DHT22;35901;48.694;9.476;2023-04-01T22:22:31;7.20;99.90
50013;DHT22;35901;48.694;9.476;2023-04-01T22:25:05;7.30;99.90
50013;DHT22;35901;48.694;9.476;2023-04-01T22:27:54;7.30;99.90
50013;DHT22;35901;48.694;9.476;2023-04-01T22:32:52;7.30;99.90
50013;DHT22;35901;48.694;9.476;2023-04-01T22:35:28;7.30;99.90
50013;DHT22;35901;48.694;9.476;2023-04-01T22:38:20;7.30;99.90
50013;DHT22;35901;48.694;9.476;2023-04-01T22:43:55;7.30;99.90
50013;DHT22;35901;48.694;9.476;2023-04-01T22:55:00;7.40;99.90
50013;DHT22;35901;48.694;9.476;2023-04-01T22:57:42;7.40;99.90
50013;DHT22;35901;48.694;9.476;2023-04-01T23:00:13;7.40;99.90
50013;DHT22;35901;48.694;9.476;2023-04-01T23:02:45;7.40;99.90
50013;DHT22;35901;48.694;9.476;2023-04-01T23:05:17;7.40;99.90
50013;DHT22;35901;48.694;9.476;2023-04-01T23:10:55;7.50;99.90
50013;DHT22;35901;48.694;9.476;2023-04-01T23:13:26;7.50;99.90
50013;DHT22;35901;48.694;9.476;2023-04-01T23:15:54;7.40;99.90
50013;DHT22;35901;48.694;9.476;2023-04-01T23:18:44;7.50;99.90
50013;DHT22;35901;48.694;9.476;2023-04-01T23:21:24;7.50;99.90
50013;DHT22;35901;48.694;9.476;2023-04-01T23:27:03;7.50;99.90
50013;DHT22;35901;48.694;9.476;2023-04-01T23:29:35;7.50;99.90
50013;DHT22;35901;48.694;9.476;2023-04-01T23:32:03;7.50;99.90
50013;DHT22;35901;48.694;9.476;2023-04-01T23:34:35;7.50;99.90
50013;DHT22;35901;48.694;9.476;2023-04-01T23:37:09;7.50;99.90
50013;DHT22;35901;48.694;9.476;2023-04-01T23:39:38;7.40;99.90
50013;DHT22;35901;48.694;9.476;2023-04-01T23:42:24;7.40;99.90
50013;DHT22;35901;48.694;9.476;2023-04-01T23:44:53;7.40;99.90
50013;DHT22;35901;48.694;9.476;2023-04-01T23:47:26;7.40;99.90
50013;DHT22;35901;48.694;9.476;2023-04-01T23:49:57;7.40;99.90
50013;DHT22;35901;48.694;9.476;2023-04-01T23:52:30;7.40;99.90
